createdAt,value
2019-03-24T00:00:16.791Z,4.10
2019-03-24T00:01:16.778Z,4.00
2019-03-24T00:02:16.792Z,3.60
2019-03-24T00:03:16.757Z,3.60
2019-03-24T00:04:16.776Z,4.00
2019-03-24T00:05:16.735Z,4.00
2019-03-24T00:06:16.722Z,3.80
2019-03-24T00:07:16.714Z,3.90
2019-03-24T00:08:16.704Z,3.80
2019-03-24T00:09:16.696Z,4.20
2019-03-24T00:10:16.721Z,3.50
2019-03-24T00:11:16.673Z,3.90
2019-03-24T00:12:16.656Z,3.90
2019-03-24T00:13:16.649Z,3.70
2019-03-24T00:14:16.632Z,3.60
2019-03-24T00:15:25.767Z,4.10
2019-03-24T00:16:17.622Z,3.70
2019-03-24T00:17:16.600Z,3.70
2019-03-24T00:18:16.589Z,4.20
2019-03-24T00:19:16.581Z,3.70
2019-03-24T00:20:16.573Z,3.70
2019-03-24T00:21:16.578Z,3.50
2019-03-24T00:22:16.574Z,3.90
2019-03-24T00:23:16.534Z,3.90
2019-03-24T00:24:16.529Z,3.80
2019-03-24T00:25:16.512Z,3.90
2019-03-24T00:26:16.500Z,3.90
2019-03-24T00:27:16.492Z,4.00
2019-03-24T00:28:16.816Z,3.80
2019-03-24T00:29:16.467Z,3.60
2019-03-24T00:30:16.465Z,3.60
2019-03-24T00:31:16.489Z,3.70
2019-03-24T00:32:16.434Z,4.00
2019-03-24T00:33:16.424Z,3.80
2019-03-24T00:34:16.420Z,4.10
2019-03-24T00:35:16.416Z,3.70
2019-03-24T00:36:16.392Z,3.60
2019-03-24T00:37:16.380Z,4.00
2019-03-24T00:38:16.369Z,3.80
2019-03-24T00:39:16.356Z,3.70
2019-03-24T00:40:16.354Z,4.10
2019-03-24T00:41:16.341Z,4.00
2019-03-24T00:42:16.325Z,4.00
2019-03-24T00:43:16.312Z,3.70
2019-03-24T00:44:16.301Z,4.00
2019-03-24T00:45:16.293Z,4.10
2019-03-24T00:46:16.325Z,4.00
2019-03-24T00:47:16.269Z,3.50
2019-03-24T00:48:16.258Z,3.70
2019-03-24T00:49:16.246Z,3.70
2019-03-24T00:50:16.234Z,4.00
2019-03-24T00:51:16.225Z,3.70
2019-03-24T00:52:16.246Z,3.90
2019-03-24T00:53:16.203Z,3.90
2019-03-24T00:54:16.192Z,3.90
2019-03-24T00:55:16.180Z,4.00
2019-03-24T00:56:16.169Z,3.70
2019-03-24T00:57:16.157Z,3.70
2019-03-24T00:58:16.475Z,3.70
2019-03-24T00:59:16.135Z,3.80
2019-03-24T01:00:16.126Z,3.90
2019-03-24T01:01:16.118Z,4.40
2019-03-24T01:02:16.102Z,4.00
2019-03-24T01:03:16.091Z,4.00
2019-03-24T01:04:16.088Z,4.10
2019-03-24T01:05:16.068Z,4.20
2019-03-24T01:06:16.062Z,4.00
2019-03-24T01:07:16.047Z,3.60
2019-03-24T01:08:16.037Z,3.70
2019-03-24T01:09:16.025Z,3.50
2019-03-24T01:10:16.045Z,3.70
2019-03-24T01:11:16.003Z,3.60
2019-03-24T01:12:15.993Z,3.70
2019-03-24T01:13:15.983Z,3.80
2019-03-24T01:14:15.970Z,3.70
2019-03-24T01:15:15.959Z,3.80
2019-03-24T01:16:15.955Z,3.90
2019-03-24T01:17:15.936Z,4.00
2019-03-24T01:18:15.925Z,3.80
2019-03-24T01:19:15.917Z,4.00
2019-03-24T01:20:15.904Z,3.50
2019-03-24T01:21:15.900Z,4.00
2019-03-24T01:22:15.924Z,3.60
2019-03-24T01:23:15.870Z,3.80
2019-03-24T01:24:15.865Z,3.90
2019-03-24T01:25:15.851Z,3.60
2019-03-24T01:26:15.837Z,3.70
2019-03-24T01:27:15.826Z,4.00
2019-03-24T01:28:15.846Z,3.90
2019-03-24T01:29:15.806Z,3.70
2019-03-24T01:30:15.793Z,3.60
2019-03-24T01:31:15.784Z,3.90
2019-03-24T01:32:15.771Z,3.40
2019-03-24T01:33:15.762Z,3.60
2019-03-24T01:34:15.757Z,3.70
2019-03-24T01:35:15.738Z,4.00
2019-03-24T01:36:15.728Z,4.10
2019-03-24T01:37:15.714Z,3.60
2019-03-24T01:38:15.709Z,3.80
2019-03-24T01:39:15.694Z,4.10
2019-03-24T01:40:15.714Z,3.80
2019-03-24T01:41:15.673Z,3.70
2019-03-24T01:42:15.668Z,3.50
2019-03-24T01:43:15.649Z,3.60
2019-03-24T01:44:15.637Z,3.70
2019-03-24T01:45:15.631Z,3.30
2019-03-24T01:46:15.953Z,4.20
2019-03-24T01:47:15.605Z,3.50
2019-03-24T01:48:15.593Z,3.60
2019-03-24T01:49:15.583Z,3.80
2019-03-24T01:50:15.572Z,3.80
2019-03-24T01:51:15.562Z,3.50
2019-03-24T01:52:15.885Z,3.80
2019-03-24T01:53:15.539Z,3.60
2019-03-24T01:54:15.529Z,3.40
2019-03-24T01:55:15.517Z,3.50
2019-03-24T01:56:15.507Z,4.30
2019-03-24T01:57:15.494Z,3.50
2019-03-24T01:58:15.526Z,3.40
2019-03-24T01:59:15.471Z,3.50
2019-03-24T02:00:15.463Z,4.00
2019-03-24T02:01:15.449Z,3.50
2019-03-24T02:02:15.442Z,3.40
2019-03-24T02:03:15.428Z,3.50
2019-03-24T02:04:15.424Z,4.00
2019-03-24T02:05:15.407Z,3.50
2019-03-24T02:06:15.394Z,3.20
2019-03-24T02:07:15.385Z,3.50
2019-03-24T02:08:15.376Z,3.50
2019-03-24T02:09:15.361Z,3.30
2019-03-24T02:10:15.383Z,3.50
2019-03-24T02:11:15.340Z,3.20
2019-03-24T02:12:15.329Z,3.30
2019-03-24T02:13:15.320Z,4.10
2019-03-24T02:14:15.307Z,3.50
2019-03-24T02:15:15.296Z,3.50
2019-03-24T02:16:15.290Z,3.70
2019-03-24T02:17:15.272Z,3.20
2019-03-24T02:18:15.262Z,3.70
2019-03-24T02:19:15.252Z,3.30
2019-03-24T02:20:15.241Z,3.30
2019-03-24T02:21:15.235Z,3.30
2019-03-24T02:22:15.231Z,3.40
2019-03-24T02:23:15.210Z,3.90
2019-03-24T02:24:15.201Z,3.40
2019-03-24T02:25:15.231Z,3.50
2019-03-24T02:26:15.173Z,3.40
2019-03-24T02:27:15.163Z,3.50
2019-03-24T02:28:17.413Z,3.10
2019-03-24T02:29:15.142Z,3.70
2019-03-24T02:30:15.149Z,3.60
2019-03-24T02:31:15.123Z,3.40
2019-03-24T02:32:15.112Z,3.00
2019-03-24T02:33:15.094Z,3.40
2019-03-24T02:34:15.131Z,3.70
2019-03-24T02:35:15.073Z,3.20
2019-03-24T02:36:15.064Z,3.40
2019-03-24T02:37:15.054Z,3.50
2019-03-24T02:38:15.040Z,3.20
2019-03-24T02:39:15.029Z,3.90
2019-03-24T02:40:15.031Z,3.30
2019-03-24T02:41:15.008Z,3.70
2019-03-24T02:42:14.996Z,3.40
2019-03-24T02:43:14.985Z,3.60
2019-03-24T02:44:14.977Z,3.30
2019-03-24T02:45:14.968Z,3.60
2019-03-24T02:46:24.014Z,3.20
2019-03-24T02:47:15.940Z,3.10
2019-03-24T02:48:14.931Z,3.40
2019-03-24T02:49:14.919Z,3.30
2019-03-24T02:50:14.909Z,3.30
2019-03-24T02:51:14.898Z,3.50
2019-03-24T02:52:14.894Z,3.40
2019-03-24T02:53:14.874Z,3.50
2019-03-24T02:54:14.864Z,3.40
2019-03-24T02:55:14.851Z,3.40
2019-03-24T02:56:14.843Z,3.40
2019-03-24T02:57:14.834Z,3.10
2019-03-24T02:58:15.157Z,3.20
2019-03-24T02:59:14.808Z,3.90
2019-03-24T03:00:14.802Z,3.70
2019-03-24T03:01:14.785Z,3.20
2019-03-24T03:02:14.780Z,3.50
2019-03-24T03:03:14.763Z,3.50
2019-03-24T03:04:14.765Z,3.70
2019-03-24T03:05:14.742Z,3.30
2019-03-24T03:06:14.730Z,3.10
2019-03-24T03:07:14.719Z,3.20
2019-03-24T03:08:14.722Z,3.50
2019-03-24T03:09:14.699Z,3.40
2019-03-24T03:10:15.005Z,3.50
2019-03-24T03:11:14.680Z,3.10
2019-03-24T03:12:14.665Z,3.30
2019-03-24T03:13:14.654Z,3.10
2019-03-24T03:14:14.645Z,3.30
2019-03-24T03:15:14.639Z,3.40
2019-03-24T03:16:14.631Z,3.20
2019-03-24T03:17:14.609Z,3.60
2019-03-24T03:18:14.604Z,3.30
2019-03-24T03:19:14.588Z,3.60
2019-03-24T03:20:14.576Z,3.20
2019-03-24T03:21:14.570Z,3.40
2019-03-24T03:22:14.588Z,3.70
2019-03-24T03:23:14.544Z,3.10
2019-03-24T03:24:14.531Z,3.20
2019-03-24T03:25:14.521Z,3.30
2019-03-24T03:26:14.510Z,2.90
2019-03-24T03:27:14.497Z,3.30
2019-03-24T03:28:14.833Z,3.50
2019-03-24T03:29:14.475Z,3.40
2019-03-24T03:30:14.466Z,3.50
2019-03-24T03:31:14.457Z,3.30
2019-03-24T03:32:14.446Z,3.50
2019-03-24T03:33:14.433Z,3.00
2019-03-24T03:34:14.483Z,3.20
2019-03-24T03:35:14.412Z,3.70
2019-03-24T03:36:14.429Z,2.90
2019-03-24T03:37:14.394Z,3.30
2019-03-24T03:38:14.376Z,3.00
2019-03-24T03:39:14.368Z,3.60
2019-03-24T03:40:14.370Z,3.20
2019-03-24T03:41:14.346Z,3.40
2019-03-24T03:42:14.379Z,3.40
2019-03-24T03:43:14.324Z,3.60
2019-03-24T03:44:14.312Z,3.40
2019-03-24T03:45:14.300Z,3.30
2019-03-24T03:46:14.296Z,3.50
2019-03-24T03:47:14.279Z,3.40
2019-03-24T03:48:14.267Z,3.30
2019-03-24T03:49:14.257Z,3.30
2019-03-24T03:50:14.245Z,3.20
2019-03-24T03:51:14.235Z,3.00
2019-03-24T03:52:14.265Z,3.40
2019-03-24T03:53:14.217Z,3.50
2019-03-24T03:54:14.202Z,3.50
2019-03-24T03:55:14.190Z,3.50
2019-03-24T03:56:14.179Z,3.80
2019-03-24T03:57:14.169Z,3.40
2019-03-24T03:58:14.184Z,3.30
2019-03-24T03:59:14.145Z,3.10
2019-03-24T04:00:14.142Z,3.20
2019-03-24T04:01:14.148Z,3.50
2019-03-24T04:02:14.115Z,3.50
2019-03-24T04:03:14.103Z,3.10
2019-03-24T04:04:14.427Z,3.10
2019-03-24T04:05:14.079Z,3.20
2019-03-24T04:06:14.067Z,3.50
2019-03-24T04:07:14.056Z,4.00
2019-03-24T04:08:14.052Z,3.00
2019-03-24T04:09:14.034Z,3.20
2019-03-24T04:10:14.029Z,3.10
2019-03-24T04:11:14.011Z,3.10
2019-03-24T04:12:14.001Z,3.40
2019-03-24T04:13:13.991Z,3.20
2019-03-24T04:14:13.980Z,3.20
2019-03-24T04:15:13.968Z,3.00
2019-03-24T04:16:13.968Z,3.30
2019-03-24T04:17:13.944Z,3.50
2019-03-24T04:18:13.935Z,3.10
2019-03-24T04:19:13.923Z,3.40
2019-03-24T04:20:13.912Z,3.20
2019-03-24T04:21:13.902Z,3.10
2019-03-24T04:22:13.935Z,3.10
2019-03-24T04:23:13.879Z,3.10
2019-03-24T04:24:13.876Z,3.00
2019-03-24T04:25:13.858Z,3.30
2019-03-24T04:26:13.847Z,3.20
2019-03-24T04:27:13.835Z,3.30
2019-03-24T04:28:13.853Z,2.80
2019-03-24T04:29:13.819Z,3.30
2019-03-24T04:30:13.802Z,3.40
2019-03-24T04:31:13.793Z,3.50
2019-03-24T04:32:13.780Z,3.20
2019-03-24T04:33:13.769Z,3.70
2019-03-24T04:34:14.106Z,3.10
2019-03-24T04:35:13.745Z,2.80
2019-03-24T04:36:13.734Z,3.10
2019-03-24T04:37:13.725Z,3.00
2019-03-24T04:38:13.714Z,3.40
2019-03-24T04:39:13.703Z,3.00
2019-03-24T04:40:13.698Z,3.10
2019-03-24T04:41:13.682Z,3.10
2019-03-24T04:42:13.669Z,2.90
2019-03-24T04:43:13.666Z,3.10
2019-03-24T04:44:13.647Z,3.40
2019-03-24T04:45:13.637Z,3.00
2019-03-24T04:46:13.629Z,3.50
2019-03-24T04:47:16.798Z,2.80
2019-03-24T04:48:13.602Z,3.20
2019-03-24T04:49:13.589Z,2.60
2019-03-24T04:50:13.578Z,3.80
2019-03-24T04:51:13.567Z,3.10
2019-03-24T04:52:13.563Z,3.20
2019-03-24T04:53:13.545Z,3.10
2019-03-24T04:54:13.536Z,3.00
2019-03-24T04:55:13.523Z,4.30
2019-03-24T04:56:13.514Z,3.40
2019-03-24T04:57:13.501Z,3.40
2019-03-24T04:58:13.533Z,3.10
2019-03-24T04:59:13.483Z,3.40
2019-03-24T05:00:13.468Z,3.30
2019-03-24T05:01:13.462Z,3.30
2019-03-24T05:02:13.446Z,2.90
2019-03-24T05:03:13.440Z,3.30
2019-03-24T05:04:13.433Z,2.90
2019-03-24T05:05:13.415Z,3.20
2019-03-24T05:06:13.405Z,3.20
2019-03-24T05:07:13.390Z,2.80
2019-03-24T05:08:13.379Z,3.50
2019-03-24T05:09:13.368Z,3.40
2019-03-24T05:10:13.389Z,3.10
2019-03-24T05:11:13.347Z,3.10
2019-03-24T05:12:13.336Z,3.40
2019-03-24T05:13:13.325Z,3.10
2019-03-24T05:14:13.314Z,3.00
2019-03-24T05:15:13.303Z,3.10
2019-03-24T05:16:13.626Z,3.20
2019-03-24T05:17:13.284Z,3.70
2019-03-24T05:18:13.271Z,3.10
2019-03-24T05:19:13.263Z,3.20
2019-03-24T05:20:13.249Z,3.40
2019-03-24T05:21:13.237Z,3.00
2019-03-24T05:22:13.236Z,3.20
2019-03-24T05:23:13.213Z,3.00
2019-03-24T05:24:13.203Z,3.10
2019-03-24T05:25:13.197Z,3.50
2019-03-24T05:26:13.180Z,3.10
2019-03-24T05:27:13.170Z,3.00
2019-03-24T05:28:13.168Z,4.10
2019-03-24T05:29:13.181Z,3.60
2019-03-24T05:30:13.135Z,3.10
2019-03-24T05:31:13.127Z,3.20
2019-03-24T05:32:13.115Z,3.90
2019-03-24T05:33:13.106Z,3.20
2019-03-24T05:34:13.125Z,2.80
2019-03-24T05:35:13.084Z,3.80
2019-03-24T05:36:13.073Z,3.80
2019-03-24T05:37:13.062Z,3.10
2019-03-24T05:38:13.049Z,2.70
2019-03-24T05:39:13.038Z,3.10
2019-03-24T05:40:13.065Z,2.80
2019-03-24T05:41:13.015Z,3.20
2019-03-24T05:42:13.005Z,3.20
2019-03-24T05:43:12.993Z,3.00
2019-03-24T05:44:12.983Z,3.20
2019-03-24T05:45:12.981Z,3.20
2019-03-24T05:46:13.286Z,3.10
2019-03-24T05:47:12.950Z,2.80
2019-03-24T05:48:12.938Z,3.10
2019-03-24T05:49:12.928Z,3.50
2019-03-24T05:50:12.915Z,3.60
2019-03-24T05:51:12.906Z,3.50
2019-03-24T05:52:12.900Z,3.20
2019-03-24T05:53:12.885Z,3.20
2019-03-24T05:54:12.871Z,2.90
2019-03-24T05:55:12.861Z,3.10
2019-03-24T05:56:12.852Z,3.00
2019-03-24T05:57:12.837Z,3.00
2019-03-24T05:58:12.834Z,3.00
2019-03-24T05:59:12.816Z,3.10
2019-03-24T06:00:12.806Z,3.10
2019-03-24T06:01:12.794Z,3.90
2019-03-24T06:02:12.783Z,2.80
2019-03-24T06:03:12.777Z,3.30
2019-03-24T06:04:12.792Z,2.90
2019-03-24T06:05:12.755Z,3.40
2019-03-24T06:06:12.737Z,3.00
2019-03-24T06:07:12.730Z,3.90
2019-03-24T06:08:12.716Z,3.40
2019-03-24T06:09:12.711Z,3.20
2019-03-24T06:10:12.731Z,3.50
2019-03-24T06:11:12.683Z,3.20
2019-03-24T06:12:12.673Z,3.20
2019-03-24T06:13:12.662Z,2.80
2019-03-24T06:14:12.649Z,3.00
2019-03-24T06:15:12.641Z,3.00
2019-03-24T06:16:12.669Z,3.00
2019-03-24T06:17:12.617Z,2.90
2019-03-24T06:18:12.609Z,2.70
2019-03-24T06:19:12.595Z,3.40
2019-03-24T06:20:12.584Z,2.70
2019-03-24T06:21:12.575Z,3.30
2019-03-24T06:22:12.901Z,3.00
2019-03-24T06:23:12.553Z,3.30
2019-03-24T06:24:12.542Z,3.60
2019-03-24T06:25:12.538Z,3.00
2019-03-24T06:26:12.521Z,3.20
2019-03-24T06:27:12.506Z,3.30
2019-03-24T06:28:12.502Z,3.30
2019-03-24T06:29:12.486Z,2.50
2019-03-24T06:30:12.472Z,3.10
2019-03-24T06:31:12.462Z,3.40
2019-03-24T06:32:12.451Z,3.40
2019-03-24T06:33:12.439Z,3.00
2019-03-24T06:34:12.760Z,2.80
2019-03-24T06:35:12.417Z,3.30
2019-03-24T06:36:12.410Z,3.10
2019-03-24T06:37:12.398Z,2.90
2019-03-24T06:38:12.390Z,3.00
2019-03-24T06:39:12.374Z,3.10
2019-03-24T06:40:12.394Z,3.10
2019-03-24T06:41:12.350Z,2.90
2019-03-24T06:42:12.342Z,3.00
2019-03-24T06:43:12.329Z,2.90
2019-03-24T06:44:12.324Z,3.00
2019-03-24T06:45:12.310Z,3.80
2019-03-24T06:46:12.327Z,3.30
2019-03-24T06:47:12.290Z,2.70
2019-03-24T06:48:12.274Z,2.70
2019-03-24T06:49:12.268Z,4.10
2019-03-24T06:50:12.251Z,2.60
2019-03-24T06:51:12.243Z,2.60
2019-03-24T06:52:12.239Z,2.80
2019-03-24T06:53:12.219Z,3.10
2019-03-24T06:54:12.207Z,3.00
2019-03-24T06:55:12.197Z,2.60
2019-03-24T06:56:12.186Z,2.80
2019-03-24T06:57:12.180Z,3.00
2019-03-24T06:58:12.206Z,3.70
2019-03-24T06:59:12.156Z,3.50
2019-03-24T07:00:12.141Z,3.00
2019-03-24T07:01:12.129Z,3.70
2019-03-24T07:02:12.124Z,2.60
2019-03-24T07:03:12.106Z,3.10
2019-03-24T07:04:12.103Z,3.30
2019-03-24T07:05:12.085Z,3.20
2019-03-24T07:06:12.075Z,3.60
2019-03-24T07:07:12.063Z,2.60
2019-03-24T07:08:12.052Z,3.20
2019-03-24T07:09:12.042Z,3.00
2019-03-24T07:10:12.073Z,3.00
2019-03-24T07:11:13.855Z,3.00
2019-03-24T07:12:12.010Z,3.00
2019-03-24T07:13:11.999Z,2.90
2019-03-24T07:14:11.984Z,2.60
2019-03-24T07:15:11.976Z,3.20
2019-03-24T07:16:11.995Z,3.30
2019-03-24T07:17:11.953Z,2.60
2019-03-24T07:18:11.942Z,2.80
2019-03-24T07:19:11.930Z,2.70
2019-03-24T07:20:11.922Z,2.80
2019-03-24T07:21:11.909Z,2.80
2019-03-24T07:22:11.908Z,3.00
2019-03-24T07:23:11.886Z,3.10
2019-03-24T07:24:11.897Z,3.20
2019-03-24T07:25:11.864Z,2.80
2019-03-24T07:26:11.859Z,3.40
2019-03-24T07:27:11.848Z,2.90
2019-03-24T07:28:11.838Z,2.60
2019-03-24T07:29:11.821Z,3.00
2019-03-24T07:30:11.808Z,3.40
2019-03-24T07:31:11.801Z,2.90
2019-03-24T07:32:11.788Z,3.20
2019-03-24T07:33:11.776Z,2.70
2019-03-24T07:34:11.796Z,3.50
2019-03-24T07:35:11.752Z,3.00
2019-03-24T07:36:11.747Z,3.20
2019-03-24T07:37:11.731Z,3.20
2019-03-24T07:38:11.720Z,2.70
2019-03-24T07:39:11.711Z,3.70
2019-03-24T07:40:11.730Z,2.80
2019-03-24T07:41:11.689Z,2.60
2019-03-24T07:42:11.676Z,2.90
2019-03-24T07:43:11.664Z,3.30
2019-03-24T07:44:11.654Z,3.10
2019-03-24T07:45:11.642Z,2.80
2019-03-24T07:46:11.981Z,3.00
2019-03-24T07:47:11.622Z,3.00
2019-03-24T07:48:19.112Z,2.90
2019-03-24T07:49:12.598Z,3.10
2019-03-24T07:50:11.593Z,3.50
2019-03-24T07:51:11.578Z,3.10
2019-03-24T07:52:11.601Z,2.80
2019-03-24T07:53:11.553Z,2.70
2019-03-24T07:54:11.543Z,2.80
2019-03-24T07:55:11.534Z,2.90
2019-03-24T07:56:11.523Z,2.70
2019-03-24T07:57:11.508Z,2.80
2019-03-24T07:58:11.530Z,3.20
2019-03-24T07:59:11.488Z,2.90
2019-03-24T08:00:11.480Z,2.60
2019-03-24T08:01:11.473Z,3.40
2019-03-24T08:02:11.460Z,2.90
2019-03-24T08:03:11.446Z,2.90
2019-03-24T08:04:11.463Z,2.70
2019-03-24T08:05:11.420Z,2.30
2019-03-24T08:06:11.412Z,3.00
2019-03-24T08:07:11.401Z,3.50
2019-03-24T08:08:11.388Z,2.60
2019-03-24T08:09:11.379Z,3.30
2019-03-24T08:10:11.376Z,2.80
2019-03-24T08:11:11.354Z,2.90
2019-03-24T08:12:11.345Z,3.50
2019-03-24T08:13:11.337Z,3.50
2019-03-24T08:14:11.448Z,3.00
2019-03-24T08:15:11.310Z,3.40
2019-03-24T08:16:11.336Z,3.00
2019-03-24T08:17:11.288Z,2.60
2019-03-24T08:18:11.307Z,2.90
2019-03-24T08:19:11.265Z,2.90
2019-03-24T08:20:12.300Z,3.60
2019-03-24T08:21:11.246Z,2.70
2019-03-24T08:22:11.269Z,2.50
2019-03-24T08:23:11.224Z,2.60
2019-03-24T08:24:11.210Z,2.70
2019-03-24T08:25:11.205Z,3.10
2019-03-24T08:26:11.245Z,3.30
2019-03-24T08:27:11.177Z,2.60
2019-03-24T08:28:11.197Z,3.30
2019-03-24T08:29:11.156Z,3.20
2019-03-24T08:30:11.144Z,2.50
2019-03-24T08:31:11.137Z,3.20
2019-03-24T08:32:11.122Z,2.50
2019-03-24T08:33:11.115Z,2.80
2019-03-24T08:34:11.132Z,3.10
2019-03-24T08:35:11.089Z,3.20
2019-03-24T08:36:11.078Z,2.80
2019-03-24T08:37:11.068Z,3.10
2019-03-24T08:38:11.057Z,3.50
2019-03-24T08:39:11.044Z,3.00
2019-03-24T08:40:11.067Z,3.20
2019-03-24T08:41:11.027Z,2.60
2019-03-24T08:42:11.014Z,2.90
2019-03-24T08:43:11.001Z,2.90
2019-03-24T08:44:11.022Z,2.80
2019-03-24T08:45:10.982Z,2.90
2019-03-24T08:46:10.975Z,2.50
2019-03-24T08:47:10.956Z,2.90
2019-03-24T08:48:10.948Z,3.40
2019-03-24T08:49:10.934Z,2.70
2019-03-24T08:50:10.924Z,2.60
2019-03-24T08:51:10.912Z,2.60
2019-03-24T08:52:10.938Z,2.30
2019-03-24T08:53:10.894Z,2.60
2019-03-24T08:54:10.876Z,2.40
2019-03-24T08:55:10.869Z,2.50
2019-03-24T08:56:10.856Z,2.40
2019-03-24T08:57:10.851Z,3.20
2019-03-24T08:58:10.877Z,3.10
2019-03-24T08:59:10.825Z,2.60
2019-03-24T09:00:10.821Z,3.10
2019-03-24T09:01:10.804Z,2.90
2019-03-24T09:02:10.790Z,3.30
2019-03-24T09:03:10.782Z,2.90
2019-03-24T09:04:10.798Z,3.70
2019-03-24T09:05:10.757Z,2.70
2019-03-24T09:06:10.746Z,3.20
2019-03-24T09:07:10.734Z,3.10
2019-03-24T09:08:10.728Z,3.10
2019-03-24T09:09:10.712Z,3.10
2019-03-24T09:10:11.053Z,3.10
2019-03-24T09:11:10.689Z,2.70
2019-03-24T09:12:10.682Z,3.00
2019-03-24T09:13:10.669Z,3.00
2019-03-24T09:14:10.656Z,3.10
2019-03-24T09:15:10.648Z,2.70
2019-03-24T09:16:10.642Z,2.70
2019-03-24T09:17:10.625Z,3.20
2019-03-24T09:18:10.613Z,2.10
2019-03-24T09:19:10.602Z,2.80
2019-03-24T09:20:10.591Z,2.70
2019-03-24T09:21:10.580Z,3.00
2019-03-24T09:22:10.578Z,2.70
2019-03-24T09:23:10.810Z,2.60
2019-03-24T09:24:10.546Z,2.70
2019-03-24T09:25:10.537Z,2.40
2019-03-24T09:26:10.526Z,2.70
2019-03-24T09:27:10.512Z,3.10
2019-03-24T09:28:10.836Z,2.50
2019-03-24T09:29:10.494Z,2.70
2019-03-24T09:30:10.479Z,2.60
2019-03-24T09:31:10.469Z,2.70
2019-03-24T09:32:10.481Z,3.30
2019-03-24T09:33:10.448Z,2.70
2019-03-24T09:34:10.477Z,2.50
2019-03-24T09:35:10.426Z,2.60
2019-03-24T09:36:10.414Z,2.30
2019-03-24T09:37:10.404Z,2.50
2019-03-24T09:38:10.394Z,2.20
2019-03-24T09:39:10.385Z,2.80
2019-03-24T09:40:10.378Z,3.20
2019-03-24T09:41:10.359Z,3.10
2019-03-24T09:42:10.351Z,2.70
2019-03-24T09:43:10.340Z,2.80
2019-03-24T09:44:10.450Z,2.50
2019-03-24T09:45:10.314Z,2.60
2019-03-24T09:46:10.636Z,2.60
2019-03-24T09:47:10.294Z,3.00
2019-03-24T09:48:10.279Z,2.40
2019-03-24T09:49:10.268Z,2.90
2019-03-24T09:50:10.259Z,2.60
2019-03-24T09:51:10.249Z,2.60
2019-03-24T09:52:10.573Z,3.00
2019-03-24T09:53:10.225Z,2.70
2019-03-24T09:54:10.215Z,2.20
2019-03-24T09:55:10.202Z,2.80
2019-03-24T09:56:10.193Z,2.20
2019-03-24T09:57:10.179Z,2.50
2019-03-24T09:58:10.179Z,2.60
2019-03-24T09:59:10.158Z,2.70
2019-03-24T10:00:10.150Z,2.50
2019-03-24T10:01:10.135Z,2.60
2019-03-24T10:02:10.123Z,3.00
2019-03-24T10:03:10.119Z,2.90
2019-03-24T10:04:10.131Z,2.30
2019-03-24T10:05:10.091Z,2.10
2019-03-24T10:06:10.080Z,2.20
2019-03-24T10:07:10.073Z,2.40
2019-03-24T10:08:10.058Z,2.40
2019-03-24T10:09:10.048Z,2.60
2019-03-24T10:10:10.371Z,2.70
2019-03-24T10:11:10.024Z,2.60
2019-03-24T10:12:10.039Z,3.00
2019-03-24T10:13:10.003Z,2.40
2019-03-24T10:14:09.991Z,3.00
2019-03-24T10:15:09.983Z,2.10
2019-03-24T10:16:10.014Z,2.10
2019-03-24T10:17:09.958Z,2.90
2019-03-24T10:18:09.948Z,2.70
2019-03-24T10:19:14.285Z,2.40
2019-03-24T10:20:09.926Z,2.70
2019-03-24T10:21:09.913Z,2.80
2019-03-24T10:22:10.244Z,2.50
2019-03-24T10:23:09.896Z,3.10
2019-03-24T10:24:09.883Z,4.00
2019-03-24T10:25:09.869Z,2.40
2019-03-24T10:26:09.857Z,2.90
2019-03-24T10:27:09.847Z,3.00
2019-03-24T10:28:09.847Z,2.20
2019-03-24T10:29:09.825Z,2.80
2019-03-24T10:30:09.814Z,3.10
2019-03-24T10:31:09.802Z,2.40
2019-03-24T10:32:09.798Z,2.10
2019-03-24T10:33:09.783Z,2.50
2019-03-24T10:34:09.778Z,2.60
2019-03-24T10:35:09.759Z,2.20
2019-03-24T10:36:09.753Z,2.70
2019-03-24T10:37:09.738Z,2.60
2019-03-24T10:38:09.725Z,2.20
2019-03-24T10:39:09.714Z,3.20
2019-03-24T10:40:09.753Z,2.30
2019-03-24T10:41:09.695Z,3.10
2019-03-24T10:42:09.733Z,3.20
2019-03-24T10:43:09.675Z,2.30
2019-03-24T10:44:09.659Z,2.30
2019-03-24T10:45:09.648Z,2.10
2019-03-24T10:46:09.970Z,2.80
2019-03-24T10:47:09.626Z,2.30
2019-03-24T10:48:09.615Z,2.50
2019-03-24T10:49:09.607Z,2.20
2019-03-24T10:50:09.595Z,2.70
2019-03-24T10:51:09.586Z,2.20
2019-03-24T10:52:09.910Z,2.10
2019-03-24T10:53:09.562Z,2.70
2019-03-24T10:54:09.550Z,2.20
2019-03-24T10:55:09.538Z,2.50
2019-03-24T10:56:09.531Z,2.10
2019-03-24T10:57:09.519Z,2.10
2019-03-24T10:58:09.550Z,1.90
2019-03-24T10:59:09.493Z,2.70
2019-03-24T11:00:09.482Z,2.10
2019-03-24T11:01:09.473Z,2.00
2019-03-24T11:02:09.462Z,2.30
2019-03-24T11:03:09.451Z,2.10
2019-03-24T11:04:09.447Z,2.30
2019-03-24T11:05:09.428Z,2.40
2019-03-24T11:06:09.416Z,2.10
2019-03-24T11:07:09.406Z,2.30
2019-03-24T11:08:09.394Z,2.00
2019-03-24T11:09:09.385Z,2.60
2019-03-24T11:10:09.415Z,2.60
2019-03-24T11:11:09.367Z,2.20
2019-03-24T11:12:09.351Z,1.90
2019-03-24T11:13:09.341Z,1.80
2019-03-24T11:14:09.329Z,2.70
2019-03-24T11:15:09.319Z,1.70
2019-03-24T11:16:09.339Z,3.10
2019-03-24T11:17:09.307Z,2.00
2019-03-24T11:18:09.285Z,2.20
2019-03-24T11:19:09.275Z,2.10
2019-03-24T11:20:09.276Z,2.10
2019-03-24T11:21:09.253Z,1.90
2019-03-24T11:22:09.285Z,2.00
2019-03-24T11:23:09.234Z,2.50
2019-03-24T11:24:09.220Z,2.10
2019-03-24T11:25:09.209Z,2.10
2019-03-24T11:26:09.206Z,2.10
2019-03-24T11:27:09.189Z,2.10
2019-03-24T11:28:09.184Z,2.30
2019-03-24T11:29:09.167Z,2.60
2019-03-24T11:30:09.155Z,2.40
2019-03-24T11:31:09.145Z,2.30
2019-03-24T11:32:09.134Z,2.40
2019-03-24T11:33:09.122Z,2.00
2019-03-24T11:34:09.119Z,2.60
2019-03-24T11:35:09.100Z,2.40
2019-03-24T11:36:09.090Z,2.60
2019-03-24T11:37:09.078Z,1.90
2019-03-24T11:38:09.069Z,2.40
2019-03-24T11:39:09.057Z,2.40
2019-03-24T11:40:09.059Z,2.50
2019-03-24T11:41:09.035Z,2.00
2019-03-24T11:42:09.025Z,1.80
2019-03-24T11:43:09.016Z,2.80
2019-03-24T11:44:09.003Z,2.20
2019-03-24T11:45:08.992Z,3.00
2019-03-24T11:46:08.989Z,2.20
2019-03-24T11:47:08.969Z,2.00
2019-03-24T11:48:08.960Z,2.20
2019-03-24T11:49:08.950Z,2.70
2019-03-24T11:50:08.950Z,2.50
2019-03-24T11:51:08.930Z,2.00
2019-03-24T11:52:08.946Z,2.00
2019-03-24T11:53:08.906Z,2.30
2019-03-24T11:54:08.894Z,2.10
2019-03-24T11:55:08.883Z,1.90
2019-03-24T11:56:08.875Z,1.80
2019-03-24T11:57:08.863Z,1.60
2019-03-24T11:58:08.887Z,2.40
2019-03-24T11:59:08.840Z,2.20
2019-03-24T12:00:08.831Z,1.80
2019-03-24T12:01:08.821Z,1.70
2019-03-24T12:02:08.808Z,2.00
2019-03-24T12:03:08.800Z,1.80
2019-03-24T12:04:08.797Z,2.60
2019-03-24T12:05:08.783Z,2.30
2019-03-24T12:06:14.351Z,2.20
2019-03-24T12:07:09.756Z,2.40
2019-03-24T12:08:08.743Z,2.10
2019-03-24T12:09:08.736Z,2.10
2019-03-24T12:10:09.050Z,2.20
2019-03-24T12:11:08.711Z,2.80
2019-03-24T12:12:08.702Z,2.00
2019-03-24T12:13:08.689Z,2.10
2019-03-24T12:14:08.677Z,2.30
2019-03-24T12:15:08.671Z,2.00
2019-03-24T12:16:08.671Z,2.50
2019-03-24T12:17:08.648Z,1.90
2019-03-24T12:18:08.636Z,1.90
2019-03-24T12:19:08.626Z,1.70
2019-03-24T12:20:08.619Z,1.80
2019-03-24T12:21:08.608Z,1.90
2019-03-24T12:22:08.604Z,2.60
2019-03-24T12:23:08.585Z,2.40
2019-03-24T12:24:08.573Z,2.20
2019-03-24T12:25:08.562Z,1.90
2019-03-24T12:26:08.550Z,2.10
2019-03-24T12:27:08.541Z,1.80
2019-03-24T12:28:08.562Z,2.10
2019-03-24T12:29:08.520Z,2.40
2019-03-24T12:30:08.508Z,1.60
2019-03-24T12:31:08.499Z,1.60
2019-03-24T12:32:08.487Z,2.00
2019-03-24T12:33:08.479Z,2.50
2019-03-24T12:34:08.511Z,2.30
2019-03-24T12:35:08.592Z,2.00
2019-03-24T12:36:08.443Z,2.50
2019-03-24T12:37:08.431Z,1.80
2019-03-24T12:38:08.421Z,1.90
2019-03-24T12:39:08.412Z,2.30
2019-03-24T12:40:08.408Z,2.20
2019-03-24T12:41:08.391Z,2.00
2019-03-24T12:42:08.380Z,2.20
2019-03-24T12:43:18.595Z,1.80
2019-03-24T12:44:09.356Z,1.90
2019-03-24T12:45:08.351Z,2.60
2019-03-24T12:46:08.345Z,2.10
2019-03-24T12:47:08.327Z,1.80
2019-03-24T12:48:08.361Z,1.70
2019-03-24T12:49:08.310Z,1.90
2019-03-24T12:50:09.859Z,1.80
2019-03-24T12:51:08.284Z,1.90
2019-03-24T12:52:08.279Z,2.00
2019-03-24T12:53:08.263Z,1.90
2019-03-24T12:54:08.279Z,1.90
2019-03-24T12:55:08.246Z,1.90
2019-03-24T12:56:08.234Z,2.00
2019-03-24T12:57:08.229Z,2.40
2019-03-24T12:58:08.219Z,2.70
2019-03-24T12:59:08.204Z,2.10
2019-03-24T13:00:08.188Z,2.00
2019-03-24T13:01:08.182Z,1.70
2019-03-24T13:02:08.165Z,2.00
2019-03-24T13:03:08.157Z,1.70
2019-03-24T13:04:08.172Z,1.80
2019-03-24T13:05:08.133Z,1.50
2019-03-24T13:06:08.122Z,1.90
2019-03-24T13:07:08.112Z,1.80
2019-03-24T13:08:08.101Z,1.40
2019-03-24T13:09:08.089Z,2.30
2019-03-24T13:10:08.116Z,1.70
2019-03-24T13:11:08.077Z,1.80
2019-03-24T13:12:08.059Z,1.80
2019-03-24T13:13:08.051Z,2.00
2019-03-24T13:14:08.039Z,2.50
2019-03-24T13:15:08.034Z,1.90
2019-03-24T13:16:08.049Z,1.90
2019-03-24T13:17:08.004Z,1.90
2019-03-24T13:18:08.000Z,2.30